Terminal Aerodrome Forecast
Issued by NWS

Home | Current Version | Previous Version | Text Only | Print | Product List | Glossary On
Versions: 1 2 3 4 5 6 7 8 9 10 11 12 13 14 15 16 17 18 19 20 21 22 23 24 25 26
034
FTUS41 KALY 270536
TAFPSF
TAF
KPSF 270536Z 2706/2806 25006KT P6SM SKC
      TEMPO 2707/2711 1/4SM FG VV002
     FM271200 VRB03KT 2SM BR BKN007
     FM271300 34006KT P6SM BKN250=

USA.gov is the U.S. government's official web portal to all federal, state and local government web resources and services.